createdAt,value
2022-12-07T00:01:55.974Z,13.50
2022-12-07T00:04:25.524Z,14.38
2022-12-07T00:06:56.264Z,13.93
2022-12-07T00:09:25.985Z,15.38
2022-12-07T00:11:55.730Z,13.52
2022-12-07T00:14:25.255Z,18.73
2022-12-07T00:16:56.153Z,14.15
2022-12-07T00:19:25.771Z,14.43
2022-12-07T00:21:55.378Z,15.35
2022-12-07T00:24:24.690Z,13.60
2022-12-07T00:26:54.112Z,15.70
2022-12-07T00:29:25.282Z,14.05
2022-12-07T00:31:56.251Z,20.90
2022-12-07T00:34:25.893Z,13.80
2022-12-07T00:36:55.308Z,13.95
2022-12-07T00:39:24.754Z,16.70
2022-12-07T00:41:54.205Z,14.48
2022-12-07T00:44:23.470Z,16.13
2022-12-07T00:46:52.852Z,13.07
2022-12-07T00:50:59.688Z,15.60
2022-12-07T00:53:30.265Z,16.20
2022-12-07T00:56:00.036Z,15.77
2022-12-07T00:58:29.382Z,14.65
2022-12-07T01:01:03.641Z,17.80
2022-12-07T01:03:33.386Z,18.67
2022-12-07T01:06:05.048Z,18.92
2022-12-07T01:08:34.964Z,16.13
2022-12-07T01:11:07.321Z,18.52
2022-12-07T01:13:37.907Z,21.77
2022-12-07T01:16:10.365Z,20.48
2022-12-07T01:18:40.228Z,22.08
2022-12-07T01:21:15.308Z,15.63
2022-12-07T01:23:47.033Z,19.27
2022-12-07T01:26:20.084Z,20.35
2022-12-07T01:28:50.146Z,14.90
2022-12-07T01:31:22.778Z,17.42
2022-12-07T01:33:55.845Z,15.20
2022-12-07T01:36:29.487Z,15.90
2022-12-07T01:39:01.609Z,14.40
2022-12-07T01:41:34.664Z,14.80
2022-12-07T01:44:21.185Z,16.70
2022-12-07T01:46:52.888Z,15.90
2022-12-07T01:49:38.828Z,17.75
2022-12-07T01:52:19.773Z,13.65
2022-12-07T01:54:51.534Z,15.23
2022-12-07T01:57:22.667Z,13.20
2022-12-07T01:59:54.596Z,11.15
2022-12-07T02:02:29.976Z,12.90
2022-12-07T02:05:00.606Z,11.95
2022-12-07T02:07:32.325Z,11.98
2022-12-07T02:10:16.677Z,13.55
2022-12-07T02:12:48.808Z,13.68
2022-12-07T02:15:18.786Z,12.93
2022-12-07T02:17:57.353Z,12.70
2022-12-07T02:20:34.392Z,14.40
2022-12-07T02:23:44.345Z,13.48
2022-12-07T02:26:55.786Z,13.68
2022-12-07T02:29:30.630Z,10.30
2022-12-07T02:32:08.905Z,13.15
2022-12-07T02:34:50.253Z,11.75
2022-12-07T02:37:34.893Z,12.38
2022-12-07T02:40:12.705Z,12.52
2022-12-07T02:42:49.425Z,18.55
2022-12-07T02:45:24.931Z,16.33
2022-12-07T02:48:01.258Z,12.73
2022-12-07T02:50:31.337Z,11.43
2022-12-07T02:53:00.706Z,11.80
2022-12-07T02:55:36.545Z,14.82
2022-12-07T02:58:26.347Z,20.75
2022-12-07T03:01:25.540Z,12.38
2022-12-07T03:04:08.606Z,13.18
2022-12-07T03:09:20.451Z,14.30
2022-12-07T03:11:57.229Z,10.63
2022-12-07T03:14:32.986Z,11.73
2022-12-07T03:17:10.807Z,14.55
2022-12-07T03:19:41.504Z,17.48
2022-12-07T03:22:14.852Z,21.75
2022-12-07T03:24:49.171Z,16.92
2022-12-07T03:27:24.013Z,19.58
2022-12-07T03:30:03.446Z,13.98
2022-12-07T03:32:41.332Z,16.80
2022-12-07T03:35:19.269Z,15.73
2022-12-07T03:37:55.006Z,21.23
2022-12-07T03:40:31.247Z,22.08
2022-12-07T03:43:02.777Z,20.52
2022-12-07T03:45:40.647Z,17.90
2022-12-07T03:48:19.770Z,19.73
2022-12-07T03:52:08.254Z,18.77
2022-12-07T03:54:45.472Z,20.00
2022-12-07T03:57:16.188Z,16.45
2022-12-07T03:59:46.271Z,12.70
2022-12-07T04:02:17.054Z,13.73
2022-12-07T04:04:46.867Z,19.58
2022-12-07T04:07:17.567Z,27.95
2022-12-07T04:09:47.084Z,21.90
2022-12-07T04:12:16.490Z,22.20
2022-12-07T04:14:45.907Z,24.23
2022-12-07T04:17:15.406Z,26.23
2022-12-07T04:19:44.944Z,26.13
2022-12-07T04:22:14.386Z,22.60
2022-12-07T04:24:45.212Z,26.85
2022-12-07T04:27:14.500Z,21.48
2022-12-07T04:29:43.832Z,19.15
2022-12-07T04:32:13.192Z,16.55
2022-12-07T04:34:42.688Z,19.95
2022-12-07T04:37:12.051Z,13.98
2022-12-07T04:39:41.265Z,15.45
2022-12-07T04:42:11.986Z,15.77
2022-12-07T04:44:41.552Z,17.73
2022-12-07T04:47:10.857Z,20.08
2022-12-07T04:49:40.283Z,19.02
2022-12-07T04:52:09.627Z,14.88
2022-12-07T04:54:38.894Z,14.32
2022-12-07T04:57:08.208Z,13.43
2022-12-07T04:59:45.104Z,17.23
2022-12-07T05:02:15.720Z,16.75
2022-12-07T05:04:45.206Z,13.40
2022-12-07T05:07:14.468Z,15.35
2022-12-07T05:09:43.831Z,16.08
2022-12-07T05:12:13.177Z,11.70
2022-12-07T05:14:43.991Z,14.32
2022-12-07T05:17:13.311Z,13.25
2022-12-07T05:19:42.547Z,16.70
2022-12-07T05:22:12.126Z,15.90
2022-12-07T05:24:41.415Z,15.90
2022-12-07T05:27:10.844Z,14.73
2022-12-07T05:29:40.208Z,11.80
2022-12-07T05:32:10.975Z,12.98
2022-12-07T05:34:40.647Z,12.50
2022-12-07T05:37:09.898Z,12.10
2022-12-07T05:39:42.051Z,11.93
2022-12-07T05:42:15.408Z,14.63
2022-12-07T05:44:46.687Z,12.57
2022-12-07T05:47:19.155Z,22.45
2022-12-07T05:49:48.646Z,13.45
2022-12-07T05:52:18.088Z,13.10
2022-12-07T05:54:47.419Z,13.32
2022-12-07T05:57:17.146Z,13.30
2022-12-07T05:59:45.560Z,15.93
2022-12-07T06:02:19.091Z,19.08
2022-12-07T06:04:49.987Z,17.98
2022-12-07T06:07:22.298Z,11.98
2022-12-07T06:09:51.695Z,21.95
2022-12-07T06:12:35.411Z,20.73
2022-12-07T06:15:05.221Z,26.88
2022-12-07T06:17:35.954Z,29.67
2022-12-07T06:20:05.770Z,26.95
2022-12-07T06:22:35.186Z,22.48
2022-12-07T06:25:08.497Z,19.25
2022-12-07T06:27:38.406Z,18.05
2022-12-07T06:30:10.073Z,17.00
2022-12-07T06:32:41.688Z,28.20
2022-12-07T06:35:11.607Z,27.95
2022-12-07T06:37:40.967Z,28.95
2022-12-07T06:40:12.426Z,21.58
2022-12-07T06:42:41.710Z,21.38
2022-12-07T06:45:12.427Z,21.52
2022-12-07T06:47:44.367Z,26.35
2022-12-07T06:51:58.894Z,44.33
2022-12-07T06:54:28.662Z,39.78
2022-12-07T06:56:59.299Z,43.90
2022-12-07T06:59:28.788Z,35.97
2022-12-07T07:01:59.950Z,37.13
2022-12-07T07:04:29.333Z,37.85
2022-12-07T07:07:00.465Z,47.30
2022-12-07T07:09:30.186Z,25.85
2022-12-07T07:11:59.551Z,18.05
2022-12-07T07:14:28.944Z,21.90
2022-12-07T07:16:58.388Z,20.85
2022-12-07T07:19:27.747Z,26.60
2022-12-07T07:21:58.490Z,44.28
2022-12-07T07:24:27.821Z,36.17
2022-12-07T07:26:57.151Z,28.77
2022-12-07T07:29:26.545Z,27.58
2022-12-07T07:31:55.950Z,28.15
2022-12-07T07:34:25.288Z,28.83
2022-12-07T07:36:54.788Z,23.42
2022-12-07T07:39:25.607Z,28.42
2022-12-07T07:41:55.008Z,29.15
2022-12-07T07:44:24.480Z,28.30
2022-12-07T07:46:53.876Z,21.90
2022-12-07T07:49:23.250Z,18.90
2022-12-07T07:51:52.477Z,17.50
2022-12-07T07:54:21.811Z,15.45
2022-12-07T07:56:52.521Z,18.35
2022-12-07T07:59:21.853Z,18.08
2022-12-07T08:01:51.347Z,22.00
2022-12-07T08:04:20.892Z,18.83
2022-12-07T08:06:50.175Z,17.48
2022-12-07T08:09:19.628Z,14.68
2022-12-07T08:11:48.873Z,15.57
2022-12-07T08:14:19.574Z,23.20
2022-12-07T08:16:49.027Z,17.95
2022-12-07T08:19:18.300Z,14.57
2022-12-07T08:21:47.931Z,15.30
2022-12-07T08:24:17.468Z,11.77
2022-12-07T08:26:47.105Z,14.07
2022-12-07T08:29:16.337Z,12.02
2022-12-07T08:31:47.153Z,14.48
2022-12-07T08:34:17.164Z,12.60
2022-12-07T08:36:46.486Z,16.27
2022-12-07T08:39:31.422Z,13.70
2022-12-07T08:42:01.550Z,12.95
2022-12-07T08:44:31.038Z,12.88
2022-12-07T08:47:06.902Z,11.82
2022-12-07T08:49:40.306Z,11.50
2022-12-07T08:52:09.634Z,14.02
2022-12-07T08:54:41.807Z,15.32
2022-12-07T08:57:12.580Z,34.03
2022-12-07T08:59:41.987Z,17.73
2022-12-07T09:02:12.775Z,15.90
2022-12-07T09:04:42.084Z,12.85
2022-12-07T09:07:12.232Z,17.75
2022-12-07T09:09:41.669Z,15.27
2022-12-07T09:12:11.707Z,14.80
2022-12-07T09:14:41.120Z,13.90
2022-12-07T09:17:14.309Z,10.95
2022-12-07T09:19:43.777Z,12.95
2022-12-07T09:22:13.333Z,20.00
2022-12-07T09:24:42.648Z,10.85
2022-12-07T09:27:12.114Z,11.23
2022-12-07T09:29:42.066Z,10.10
2022-12-07T09:32:12.879Z,14.32
2022-12-07T09:34:42.482Z,17.50
2022-12-07T09:37:11.988Z,18.50
2022-12-07T09:39:46.364Z,15.15
2022-12-07T09:42:32.768Z,12.05
2022-12-07T09:45:04.997Z,14.00
2022-12-07T09:47:37.147Z,13.90
2022-12-07T09:52:19.232Z,11.32
2022-12-07T09:54:52.165Z,13.15
2022-12-07T09:57:28.048Z,11.95
2022-12-07T10:00:00.207Z,12.57
2022-12-07T10:02:39.864Z,12.07
2022-12-07T10:05:20.491Z,12.02
2022-12-07T10:07:55.128Z,12.02
2022-12-07T10:10:31.624Z,12.75
2022-12-07T10:13:05.448Z,13.10
2022-12-07T10:15:52.064Z,14.23
2022-12-07T10:18:42.442Z,18.05
2022-12-07T10:21:18.586Z,14.80
2022-12-07T10:26:44.610Z,14.57
2022-12-07T10:29:21.246Z,10.88
2022-12-07T10:31:58.421Z,14.50
2022-12-07T10:34:35.206Z,15.05
2022-12-07T10:37:19.749Z,14.63
2022-12-07T10:39:52.371Z,14.75
2022-12-07T10:42:26.005Z,17.60
2022-12-07T10:45:12.574Z,18.30
2022-12-07T10:47:52.325Z,13.52
2022-12-07T10:50:45.672Z,15.23
2022-12-07T10:53:55.013Z,17.23
2022-12-07T10:56:49.667Z,16.48
2022-12-07T10:59:56.526Z,11.45
2022-12-07T11:03:04.514Z,12.25
2022-12-07T11:05:44.826Z,14.50
2022-12-07T11:08:31.886Z,15.50
2022-12-07T11:11:09.407Z,16.08
2022-12-07T11:13:47.685Z,16.05
2022-12-07T11:16:35.184Z,18.77
2022-12-07T11:19:52.273Z,15.85
2022-12-07T11:22:28.594Z,18.38
2022-12-07T11:25:06.972Z,15.60
2022-12-07T11:27:46.565Z,13.52
2022-12-07T11:30:23.273Z,18.52
2022-12-07T11:33:18.209Z,16.73
2022-12-07T11:36:04.780Z,18.67
2022-12-07T11:38:44.064Z,20.13
2022-12-07T11:41:17.269Z,19.55
2022-12-07T11:43:58.993Z,16.70
2022-12-07T11:46:34.223Z,24.50
2022-12-07T11:49:16.308Z,18.27
2022-12-07T11:51:49.214Z,20.03
2022-12-07T11:54:26.356Z,21.30
2022-12-07T11:57:04.804Z,18.98
2022-12-07T11:59:42.335Z,21.35
2022-12-07T12:02:17.638Z,25.77
2022-12-07T12:05:01.013Z,18.48
2022-12-07T12:10:29.433Z,16.83
2022-12-07T12:19:25.954Z,17.42
2022-12-07T12:22:05.966Z,14.93
2022-12-07T12:24:37.845Z,20.38
2022-12-07T12:27:11.224Z,17.50
2022-12-07T12:29:43.166Z,17.27
2022-12-07T12:32:19.687Z,21.47
2022-12-07T12:35:24.348Z,19.40
2022-12-07T12:37:56.248Z,21.05
2022-12-07T12:40:50.663Z,18.93
2022-12-07T12:43:59.703Z,21.63
2022-12-07T12:46:52.811Z,19.73
2022-12-07T12:52:01.213Z,20.33
2022-12-07T12:54:32.708Z,24.15
2022-12-07T12:57:09.909Z,24.13
2022-12-07T12:59:41.164Z,24.15
2022-12-07T13:02:26.623Z,27.35
2022-12-07T13:04:58.584Z,21.77
2022-12-07T13:08:02.275Z,28.50
2022-12-07T13:10:43.315Z,24.63
2022-12-07T13:13:37.675Z,23.45
2022-12-07T13:16:52.389Z,21.95
2022-12-07T13:20:04.398Z,24.50
2022-12-07T13:22:54.250Z,23.55
2022-12-07T13:25:39.144Z,26.52
2022-12-07T13:28:18.288Z,20.55
2022-12-07T13:30:57.403Z,23.77
2022-12-07T13:33:27.633Z,21.42
2022-12-07T13:36:01.334Z,20.67
2022-12-07T13:38:34.423Z,21.08
2022-12-07T13:41:15.088Z,21.50
2022-12-07T13:43:53.366Z,21.77
2022-12-07T13:46:32.751Z,17.38
2022-12-07T13:49:02.146Z,17.92
2022-12-07T13:51:35.705Z,19.63
2022-12-07T13:54:14.391Z,19.10
2022-12-07T13:56:47.128Z,19.02
2022-12-07T14:01:50.669Z,20.33
2022-12-07T14:04:34.072Z,18.55
2022-12-07T14:07:19.650Z,24.67
2022-12-07T14:09:59.587Z,20.17
2022-12-07T14:12:32.332Z,21.38
2022-12-07T14:17:33.241Z,17.83
2022-12-07T14:20:06.172Z,19.08
2022-12-07T14:22:38.095Z,20.52
2022-12-07T14:25:26.507Z,22.60
2022-12-07T14:28:00.367Z,19.58
2022-12-07T14:30:32.444Z,27.17
2022-12-07T14:33:04.489Z,19.42
2022-12-07T14:35:35.332Z,22.70
2022-12-07T14:38:04.613Z,22.50
2022-12-07T14:40:33.995Z,26.77
2022-12-07T14:43:08.213Z,22.42
2022-12-07T14:45:37.514Z,19.10
2022-12-07T14:53:56.818Z,15.55
2022-12-07T14:56:27.146Z,18.42
2022-12-07T14:58:58.726Z,18.35
2022-12-07T15:01:28.211Z,20.80
2022-12-07T15:03:57.931Z,19.73
2022-12-07T15:06:27.466Z,20.88
2022-12-07T15:08:57.413Z,18.40
2022-12-07T15:11:27.021Z,21.27
2022-12-07T15:14:10.447Z,19.50
2022-12-07T15:17:07.323Z,30.95
2022-12-07T15:19:31.574Z,25.80
2022-12-07T15:22:01.262Z,29.88
2022-12-07T15:24:32.068Z,22.95
2022-12-07T15:27:01.415Z,19.00
2022-12-07T15:29:32.486Z,19.08
2022-12-07T15:32:01.938Z,21.88
2022-12-07T15:34:39.490Z,16.13
2022-12-07T15:37:10.429Z,17.73
2022-12-07T15:39:40.527Z,15.55
2022-12-07T15:42:09.911Z,20.95
2022-12-07T15:44:58.136Z,30.42
2022-12-07T15:47:27.870Z,20.42
2022-12-07T15:51:59.034Z,17.75
2022-12-07T15:54:33.418Z,18.38
2022-12-07T15:57:03.433Z,19.73
2022-12-07T15:59:33.026Z,25.50
2022-12-07T16:02:02.344Z,24.40
2022-12-07T16:04:32.006Z,18.00
2022-12-07T16:07:02.799Z,19.30
2022-12-07T16:09:32.432Z,19.42
2022-12-07T16:12:01.659Z,18.38
2022-12-07T16:14:33.366Z,23.92
2022-12-07T16:17:02.648Z,23.88
2022-12-07T16:19:31.968Z,20.92
2022-12-07T16:22:02.713Z,22.08
2022-12-07T16:24:32.429Z,34.35
2022-12-07T16:27:01.807Z,20.63
2022-12-07T16:29:31.147Z,20.83
2022-12-07T16:32:00.470Z,19.67
2022-12-07T16:34:29.865Z,16.13
2022-12-07T16:37:04.302Z,17.10
2022-12-07T16:39:36.243Z,19.00
2022-12-07T16:42:06.327Z,19.40
2022-12-07T16:44:35.723Z,27.98
2022-12-07T16:47:05.261Z,18.33
2022-12-07T16:49:34.862Z,18.77
2022-12-07T16:52:19.351Z,22.95
2022-12-07T16:54:52.666Z,17.80
2022-12-07T16:57:23.780Z,29.63
2022-12-07T16:59:54.487Z,28.63
2022-12-07T17:02:24.030Z,20.95
2022-12-07T17:04:53.967Z,22.00
2022-12-07T17:07:23.506Z,23.60
2022-12-07T17:09:55.914Z,18.35
2022-12-07T17:12:25.626Z,19.85
2022-12-07T17:15:12.534Z,19.48
2022-12-07T17:17:41.806Z,22.38
2022-12-07T17:20:12.785Z,18.50
2022-12-07T17:22:42.230Z,22.35
2022-12-07T17:25:13.447Z,23.15
2022-12-07T17:27:42.918Z,20.50
2022-12-07T17:30:14.048Z,17.73
2022-12-07T17:32:43.446Z,17.58
2022-12-07T17:35:13.307Z,19.58
2022-12-07T17:37:47.431Z,19.25
2022-12-07T17:40:21.413Z,22.63
2022-12-07T17:42:51.695Z,17.77
2022-12-07T17:45:21.098Z,17.38
2022-12-07T17:47:50.397Z,16.38
2022-12-07T17:50:40.765Z,16.20
2022-12-07T17:53:12.410Z,15.45
2022-12-07T17:56:19.682Z,22.13
2022-12-07T17:58:32.665Z,18.35
2022-12-07T18:01:02.117Z,18.98
2022-12-07T18:03:31.531Z,23.27
2022-12-07T18:06:03.554Z,17.05
2022-12-07T18:08:35.967Z,16.63
2022-12-07T18:11:07.546Z,18.05
2022-12-07T18:13:37.624Z,17.50
2022-12-07T18:16:10.026Z,42.30
2022-12-07T18:18:39.654Z,19.58
2022-12-07T18:21:14.342Z,17.70
2022-12-07T18:23:43.807Z,16.15
2022-12-07T18:26:15.187Z,19.02
2022-12-07T18:28:45.785Z,17.45
2022-12-07T18:31:16.099Z,17.50
2022-12-07T18:33:46.993Z,16.52
2022-12-07T18:36:17.695Z,29.35
2022-12-07T18:38:47.126Z,28.70
2022-12-07T18:41:18.224Z,16.23
2022-12-07T18:43:47.606Z,20.73
2022-12-07T18:46:19.104Z,19.63
2022-12-07T18:51:58.749Z,17.48
2022-12-07T18:54:28.120Z,22.63
2022-12-07T18:56:57.448Z,20.40
2022-12-07T18:59:43.968Z,16.38
2022-12-07T19:02:13.880Z,15.18
2022-12-07T19:04:43.294Z,16.08
2022-12-07T19:07:14.292Z,17.42
2022-12-07T19:09:43.685Z,19.40
2022-12-07T19:12:15.453Z,36.20
2022-12-07T19:14:44.846Z,30.83
2022-12-07T19:17:15.777Z,21.13
2022-12-07T19:19:47.205Z,29.55
2022-12-07T19:22:20.605Z,23.90
2022-12-07T19:24:52.646Z,30.58
2022-12-07T19:27:22.932Z,34.33
2022-12-07T19:29:53.066Z,41.00
2022-12-07T19:32:22.665Z,39.30
2022-12-07T19:34:52.225Z,33.70
2022-12-07T19:37:22.951Z,35.55
2022-12-07T19:39:53.530Z,40.03
2022-12-07T19:42:22.853Z,33.05
2022-12-07T19:44:52.373Z,40.60
2022-12-07T19:47:21.646Z,30.50
2022-12-07T19:49:50.966Z,30.65
2022-12-07T19:52:21.653Z,36.25
2022-12-07T19:54:51.128Z,27.08
2022-12-07T19:57:20.526Z,26.95
2022-12-07T19:59:49.926Z,21.60
2022-12-07T20:02:19.391Z,18.92
2022-12-07T20:04:48.887Z,19.15
2022-12-07T20:07:18.282Z,15.23
2022-12-07T20:09:49.110Z,21.33
2022-12-07T20:12:35.686Z,17.52
2022-12-07T20:15:05.813Z,14.13
2022-12-07T20:17:36.129Z,10.90
2022-12-07T20:20:06.647Z,15.90
2022-12-07T20:22:36.001Z,10.05
2022-12-07T20:25:07.758Z,11.85
2022-12-07T20:27:37.048Z,10.40
2022-12-07T20:30:08.166Z,8.02
2022-12-07T20:32:37.546Z,7.28
2022-12-07T20:35:07.890Z,7.72
2022-12-07T20:37:37.226Z,7.85
2022-12-07T20:40:10.110Z,8.88
2022-12-07T20:45:11.171Z,7.15
2022-12-07T20:47:40.773Z,9.48
2022-12-07T20:50:11.628Z,12.52
2022-12-07T20:52:40.946Z,10.75
2022-12-07T20:55:12.125Z,10.65
2022-12-07T20:57:41.746Z,7.57
2022-12-07T21:00:12.866Z,31.23
2022-12-07T21:02:42.803Z,18.77
2022-12-07T21:05:13.068Z,12.32
2022-12-07T21:07:42.517Z,13.75
2022-12-07T21:10:14.786Z,14.07
2022-12-07T21:12:44.109Z,14.43
2022-12-07T21:15:13.626Z,22.52
2022-12-07T21:17:42.952Z,19.23
2022-12-07T21:20:12.770Z,13.75
2022-12-07T21:22:42.049Z,16.42
2022-12-07T21:25:13.117Z,12.77
2022-12-07T21:27:42.488Z,12.68
2022-12-07T21:30:12.946Z,16.10
2022-12-07T21:32:42.405Z,16.02
2022-12-07T21:35:12.386Z,12.75
2022-12-07T21:37:41.649Z,13.55
2022-12-07T21:40:17.016Z,12.05
2022-12-07T21:42:47.131Z,10.85
2022-12-07T21:45:16.588Z,15.15
2022-12-07T21:47:45.910Z,13.88
2022-12-07T21:51:58.787Z,12.95
2022-12-07T21:54:28.166Z,16.67
2022-12-07T21:56:57.510Z,27.02
2022-12-07T21:59:27.206Z,19.65
2022-12-07T22:01:56.662Z,23.63
2022-12-07T22:04:27.533Z,21.10
2022-12-07T22:06:59.404Z,19.58
2022-12-07T22:09:30.730Z,16.83
2022-12-07T22:12:00.118Z,11.45
2022-12-07T22:14:47.251Z,17.83
2022-12-07T22:17:16.614Z,24.33
2022-12-07T22:19:45.921Z,24.83
2022-12-07T22:22:17.799Z,21.65
2022-12-07T22:24:48.430Z,18.52
2022-12-07T22:27:18.418Z,12.50
2022-12-07T22:29:47.915Z,16.77
2022-12-07T22:32:47.160Z,18.33
2022-12-07T22:35:07.597Z,17.15
2022-12-07T22:37:38.325Z,15.68
2022-12-07T22:40:09.899Z,16.92
2022-12-07T22:42:39.398Z,16.67
2022-12-07T22:45:10.767Z,19.15
2022-12-07T22:47:42.116Z,26.27
2022-12-07T22:50:12.887Z,24.40
2022-12-07T22:52:43.591Z,34.30
2022-12-07T22:55:13.006Z,24.77
2022-12-07T22:57:42.368Z,20.75
2022-12-07T23:00:14.030Z,19.42
2022-12-07T23:02:43.385Z,18.63
2022-12-07T23:05:12.966Z,15.07
2022-12-07T23:07:43.694Z,15.35
2022-12-07T23:10:14.270Z,15.30
2022-12-07T23:13:01.287Z,18.58
2022-12-07T23:15:30.726Z,15.38
2022-12-07T23:18:00.088Z,8.50
2022-12-07T23:20:30.117Z,14.75
2022-12-07T23:23:00.844Z,13.73
2022-12-07T23:25:30.357Z,10.35
2022-12-07T23:28:00.455Z,9.23
2022-12-07T23:30:29.747Z,9.80
2022-12-07T23:32:58.968Z,10.88
2022-12-07T23:35:28.426Z,7.40
2022-12-07T23:37:57.726Z,9.15
2022-12-07T23:40:28.389Z,10.20
2022-12-07T23:42:57.689Z,6.65
2022-12-07T23:45:27.027Z,7.93
2022-12-07T23:47:56.259Z,10.25
2022-12-07T23:50:25.490Z,9.70
2022-12-07T23:52:54.766Z,17.50
2022-12-07T23:55:24.103Z,15.52
2022-12-07T23:57:54.886Z,16.95
